• Join FlightAware (Why Join?)
  • Login
  • US Flag 
06:29AM EDT


 

Airport Tracker/Info


-or-


 

Live Flight TrackerFlight Track Log ✈ AWE226 ✈ 29-Jul-2013 ✈ KPHX - KBOS

Flight Track Log - Related Links

Times and Time Zones

All times are in EDT time to prevent confusion due to time zone crossing. See the AWE226 flight status page for this flight to view local times or setup timezone preferences in your user account.

Time Position Orientation Groundspeed Altitude Reporting Facility
EDT Latitude Longitude Course Direction KTS MPH feet Rate Location/Type
03:12AM 33.4333 -112.0333 301° West 162 186 1,900  Level Phoenix TRACON
03:13AM 33.4500 -112.0667 301° West 165 190 2,800 900 Climbing Phoenix TRACON
03:14AM 33.4500 -112.1333 270° West 202 232 3,500 1,080 Climbing Phoenix TRACON
03:15AM 33.4833 -112.1833 309° West 253 291 5,000 1,740 Climbing Phoenix TRACON
03:16AM 33.5333 -112.1333 40° Northeast 277 319 7,000 1,920 Climbing Phoenix TRACON
03:17AM 33.5917 -112.0769 39° Northeast 285 328 9,100 1,620 Climbing Albuquerque Center
03:18AM 33.6531 -112.0050 44° Northeast 307 353 10,500 1,200 Climbing Albuquerque Center
03:19AM 33.7244 -111.9203 45° Northeast 359 413 11,600 1,500 Climbing Albuquerque Center
03:20AM 33.7992 -111.8303 45° Northeast 381 438 13,600 1,620 Climbing Albuquerque Center
03:21AM 33.8744 -111.7400 45° Northeast 389 448 14,900 1,200 Climbing Albuquerque Center
03:22AM 33.9719 -111.6253 44° Northeast 420 483 16,100 1,260 Climbing Albuquerque Center
03:23AM 34.0553 -111.5228 46° Northeast 432 497 17,500 1,380 Climbing Albuquerque Center
03:24AM 34.1408 -111.4183 45° Northeast 439 505 18,900 1,320 Climbing Albuquerque Center
03:25AM 34.2283 -111.3128 45° Northeast 445 512 20,200 1,080 Climbing Albuquerque Center
03:26AM 34.3169 -111.2044 45° Northeast 451 519 21,100 840 Climbing Albuquerque Center
03:27AM 34.3964 -111.0803 52° Northeast 464 534 22,000 900 Climbing Albuquerque Center
03:28AM 34.4750 -110.9508 54° Northeast 473 544 22,900 840 Climbing Albuquerque Center
03:29AM 34.5531 -110.8200 54° Northeast 477 549 23,700 960 Climbing Albuquerque Center
03:30AM 34.6317 -110.6881 54° Northeast 481 554 24,900 1,200 Climbing Albuquerque Center
03:31AM 34.7186 -110.5417 54° Northeast 479 551 26,100 1,020 Climbing Albuquerque Center
03:32AM 34.7936 -110.4161 54° Northeast 479 551 27,000 840 Climbing Albuquerque Center
03:33AM 34.8683 -110.2894 54° Northeast 480 552 27,800 720 Climbing Albuquerque Center
03:34AM 34.9442 -110.1600 54° Northeast 488 562 28,500 720 Climbing Albuquerque Center
03:35AM 35.0342 -110.0081 54° Northeast 494 568 29,300 660 Climbing Albuquerque Center
03:36AM 35.1103 -109.8758 55° Northeast 497 572 29,900 600 Climbing Albuquerque Center
03:37AM 35.1886 -109.7436 54° Northeast 500 575 30,600 660 Climbing Albuquerque Center
03:38AM 35.2800 -109.5889 54° Northeast 503 579 31,300 660 Climbing Albuquerque Center
03:39AM 35.3567 -109.4539 55° Northeast 504 580 32,000 660 Climbing Albuquerque Center
03:40AM 35.4333 -109.3181 55° Northeast 506 582 32,700 480 Climbing Albuquerque Center
03:41AM 35.5117 -109.1842 54° Northeast 506 582 33,000 120 Climbing Albuquerque Center
03:42AM 35.6033 -109.0225 55° Northeast 513 590 33,000  Level Albuquerque Center
03:43AM 35.6833 -108.8817 55° Northeast 524 603 33,000  Level Albuquerque Center
03:44AM 35.7631 -108.7408 55° Northeast 527 606 33,000  Level Albuquerque Center
03:45AM 35.8558 -108.5772 55° Northeast 528 608 33,000  Level Albuquerque Center
03:46AM 35.9353 -108.4369 55° Northeast 527 606 33,000  Level Albuquerque Center
03:48AM 36.0376 -108.2275 57° Northeast  Level FlightAware Approximate
03:51AM 36.3442 -107.6997 56° Northeast 527 606 33,000  Level Denver Center
03:52AM 36.4133 -107.5469 61° Northeast 530 610 33,000  Level Denver Center
03:53AM 36.4925 -107.3669 61° Northeast 532 612 33,000  Level Denver Center
03:54AM 36.5586 -107.2131 62° Northeast 528 608 33,000  Level Denver Center
03:55AM 36.5461 -107.3187 54° Northeast  Level FlightAware Approximate
03:55AM 36.6250 -107.0578 62° Northeast 532 612 33,000  Level Denver Center
03:56AM 36.6179 -107.1876 56° Northeast  Level FlightAware Approximate
03:56AM 36.6919 -106.9028 62° Northeast 531 611 33,000  Level Denver Center
03:57AM 36.7711 -106.7228 61° Northeast 530 610 33,000  Level Denver Center
03:58AM 36.8367 -106.5672 62° Northeast 530 610 33,000  Level Denver Center
03:59AM 36.9008 -106.4114 63° Northeast 529 609 33,000  Level Denver Center
04:00AM 36.9789 -106.2294 62° Northeast 530 610 33,000  Level Denver Center
04:01AM 37.0447 -106.0719 62° Northeast 533 613 33,000 120 Level Denver Center
04:02AM 37.1094 -105.9167 62° Northeast 529 609 33,300 420 Climbing Denver Center
04:03AM 37.1847 -105.7342 63° Northeast 529 609 33,900 540 Climbing Denver Center
04:04AM 37.2481 -105.5781 63° Northeast 526 605 34,500 540 Climbing Denver Center
04:05AM 37.3092 -105.4228 64° Northeast 518 596 35,000 240 Climbing Denver Center
04:06AM 37.3825 -105.2417 63° Northeast 519 597 35,000  Level Denver Center
04:07AM 37.4489 -105.0864 62° Northeast 526 605 35,000  Level Denver Center
04:08AM 37.5108 -104.9286 64° Northeast 526 605 35,000  Level Denver Center
04:09AM 37.5725 -104.7717 64° Northeast 523 602 35,000  Level Denver Center
04:10AM 37.6464 -104.5872 63° Northeast 526 605 35,000  Level Denver Center
04:11AM 37.7094 -104.4281 63° Northeast 526 605 35,000  Level Denver Center
04:12AM 37.7733 -104.2686 63° Northeast 527 606 35,000  Level Denver Center
04:13AM 37.8361 -104.1061 64° Northeast 531 611 35,000  Level Denver Center
04:14AM 37.9100 -103.9181 63° Northeast 529 609 35,000  Level Denver Center
04:15AM 37.9711 -103.7564 64° Northeast 529 609 35,000  Level Denver Center
04:16AM 38.0339 -103.5942 64° Northeast 533 613 35,000  Level Denver Center
04:17AM 38.1061 -103.4056 64° Northeast 532 612 35,000  Level Denver Center
04:18AM 38.1672 -103.2444 64° Northeast 529 609 35,000  Level Denver Center
04:19AM 38.2339 -103.0697 64° Northeast 531 611 35,000  Level Denver Center
04:20AM 38.2956 -102.9067 64° Northeast 533 613 35,000  Level Denver Center
04:21AM 38.3550 -102.7458 65° Northeast 527 606 35,000  Level Denver Center
04:22AM 38.4272 -102.5542 64° Northeast 536 617 35,000  Level Denver Center
04:23AM 38.4864 -102.3919 65° Northeast 529 609 35,000  Level Denver Center
04:24AM 38.5569 -102.2017 65° Northeast 528 608 35,000  Level Denver Center
04:25AM 38.6272 -102.0100 65° Northeast 531 611 35,000  Level Denver Center
04:26AM 38.6869 -101.8447 65° Northeast 531 611 35,000  Level Denver Center
04:27AM 38.7478 -101.6800 65° Northeast 534 615 35,000  Level Denver Center
04:28AM 38.8169 -101.4867 65° Northeast 534 615 35,000  Level Denver Center
04:29AM 38.8761 -101.3197 65° Northeast 536 617 35,000  Level Denver Center
04:30AM 38.9358 -101.1525 65° Northeast 538 619 35,000  Level Denver Center
04:31AM 38.9956 -100.9856 65° Northeast 538 619 35,000  Level Denver Center
04:32AM 39.0567 -100.8103 66° East 536 617 35,000  Level Denver Center
04:33AM 39.1256 -100.6125 66° East 542 624 35,000  Level Denver Center
04:34AM 39.1833 -100.4431 66° East 541 623 35,000  Level Denver Center
04:35AM 39.2425 -100.2742 66° East 543 625 35,000  Level Denver Center
04:36AM 39.2978 -100.0719 70° East 538 619 35,000  Level Denver Center
04:37AM 39.3422 -99.8936 72° East 544 626 35,000  Level Denver Center
04:38AM 39.3867 -99.7194 72° East 539 620 35,000  Level Denver Center
04:39AM 39.4225 -99.5717 73° East 541 623 35,000  Level Denver Center
04:40AM 39.4825 -99.3325 72° East 540 621 35,000  Level Denver Center
04:41AM 39.5281 -99.1469 72° East 541 623 35,000  Level Denver Center
04:42AM 39.5731 -98.9611 73° East 542 624 35,000  Level Denver Center
04:43AM 39.6167 -98.7775 73° East 538 619 35,000  Level Denver Center
04:44AM 39.6611 -98.5922 73° East 538 619 35,000  Level Denver Center
04:46AM 39.7047 -98.4100 73° East 538 619 35,000  Level Minneapolis Center
04:47AM 39.7481 -98.2253 73° East 537 618 35,000  Level Minneapolis Center
04:48AM 39.7908 -98.0417 73° East 535 616 35,000  Level Minneapolis Center
04:49AM 39.8325 -97.8583 73° East 532 612 35,000  Level Minneapolis Center
04:50AM 39.8833 -97.6375 73° East 533 613 35,000  Level Minneapolis Center
04:51AM 39.9250 -97.4522 74° East 534 615 35,000  Level Minneapolis Center
04:52AM 39.9647 -97.2747 74° East 531 611 35,000  Level Minneapolis Center
04:53AM 40.0072 -97.0883 73° East 534 615 35,000  Level Minneapolis Center
04:54AM 40.0483 -96.9025 74° East 535 616 35,000  Level Minneapolis Center
04:55AM 40.0892 -96.7172 74° East 535 616 35,000  Level Minneapolis Center
04:56AM 40.1294 -96.5314 74° East 534 615 35,000  Level Minneapolis Center
04:57AM 40.1697 -96.3450 74° East 535 616 35,000  Level Minneapolis Center
04:58AM 40.2100 -96.1583 74° East 536 617 35,000  Level Minneapolis Center
04:59AM 40.2447 -95.9697 76° East 536 617 35,000  Level Minneapolis Center
05:00AM 40.2786 -95.7792 77° East 540 621 35,000  Level Minneapolis Center
05:01AM 40.3133 -95.5917 76° East 535 616 35,000  Level Minneapolis Center
05:02AM 40.3483 -95.4036 76° East 534 615 35,000  Level Minneapolis Center
05:03AM 40.3819 -95.2142 77° East 535 616 35,000  Level Minneapolis Center
05:04AM 40.4161 -95.0258 77° East 534 615 35,000  Level Minneapolis Center
05:05AM 40.4483 -94.8372 77° East 532 612 35,000  Level Minneapolis Center
05:06AM 40.4814 -94.6486 77° East 532 612 35,000  Level Minneapolis Center
05:07AM 40.5164 -94.4439 77° East 530 610 35,000  Level Minneapolis Center
05:08AM 40.5469 -94.2561 78° East 530 610 35,000  Level Minneapolis Center
05:09AM 40.5792 -94.0658 77° East 534 615 35,000  Level Minneapolis Center
05:10AM 40.6156 -93.8778 76° East 534 615 35,000  Level Minneapolis Center
05:11AM 40.6611 -93.6911 72° East 535 616 35,000  Level Minneapolis Center
05:12AM 40.7025 -93.5081 73° East 529 609 35,000  Level Minneapolis Center
05:13AM 40.7456 -93.3231 73° East 530 610 35,000  Level Minneapolis Center
05:14AM 40.7869 -93.1386 73° East 528 608 35,000  Level Minneapolis Center
05:15AM 40.8289 -92.9536 73° East 527 606 35,000  Level Minneapolis Center
05:16AM 40.8706 -92.7675 73° East 529 609 35,000  Level Minneapolis Center
05:17AM 40.9119 -92.5833 73° East 525 604 35,000  Level Minneapolis Center
05:18AM 40.9608 -92.3614 74° East 525 604 35,000  Level Minneapolis Center
05:19AM 41.0008 -92.1733 74° East 529 609 35,000  Level Minneapolis Center
05:20AM 41.0406 -91.9864 74° East 530 610 35,000  Level Minneapolis Center
05:21AM 41.0814 -91.8006 74° East 529 609 35,000  Level Minneapolis Center
05:22AM 41.1336 -91.5556 74° East 524 603 35,000  Level Chicago Center
05:23AM 41.1731 -91.3689 74° East 527 606 35,100 480 Climbing Chicago Center
05:24AM 41.2111 -91.1825 75° East 525 604 36,000 840 Climbing Chicago Center
05:25AM 41.2456 -90.9950 76° East 522 601 36,900 480 Climbing Chicago Center
05:26AM 41.2753 -90.8072 78° East 518 596 37,000  Climbing Chicago Center
05:27AM 41.3078 -90.6136 77° East 529 609 37,000  Level Chicago Center
05:28AM 41.3397 -90.4206 78° East 532 612 37,000  Level Chicago Center
05:29AM 41.3703 -90.2261 78° East 533 613 37,000  Level Chicago Center
05:30AM 41.4000 -90.0325 78° East 532 612 37,000  Level Chicago Center
05:31AM 41.4297 -89.8378 78° East 532 612 37,000  Level Chicago Center
05:32AM 41.4606 -89.6428 78° East 534 615 37,000  Level Chicago Center
05:33AM 41.4886 -89.4492 79° East 528 608 37,000  Level Chicago Center
05:34AM 41.5183 -89.2528 79° East 534 615 37,000  Level Chicago Center
05:35AM 41.5475 -89.0581 79° East 534 615 37,000  Level Chicago Center
05:36AM 41.5756 -88.8633 79° East 534 615 37,000  Level Chicago Center
05:37AM 41.6031 -88.6681 79° East 534 615 37,000  Level Chicago Center
05:38AM 41.6317 -88.4739 79° East 532 612 37,000  Level Chicago Center
05:39AM 41.6581 -88.2797 80° East 531 611 37,000  Level Chicago Center
05:40AM 41.6883 -88.0667 79° East 531 611 37,000  Level Chicago Center
05:41AM 41.7150 -87.8742 79° East 529 609 37,000  Level Chicago Center
05:42AM 41.7422 -87.6739 80° East 525 604 37,000  Level Chicago Center
05:43AM 41.7672 -87.4811 80° East 527 606 37,000  Level Chicago Center
05:44AM 41.7939 -87.2853 80° East 533 613 37,000  Level Chicago Center
05:46AM 41.8192 -87.0903 80° East 532 612 37,000  Level Chicago Center
05:47AM 41.8439 -86.8947 80° East 533 613 37,000  Level Chicago Center
05:48AM 41.8694 -86.6992 80° East 534 615 37,000  Level Chicago Center
05:49AM 41.8933 -86.5042 81° East 530 610 37,000  Level Chicago Center
05:50AM 41.9175 -86.3067 81° East 534 615 37,000  Level Chicago Center
05:51AM 41.9411 -86.1106 81° East 533 613 37,000  Level Chicago Center
05:52AM 41.9644 -85.9156 81° East 530 610 37,000  Level Chicago Center
05:53AM 41.9878 -85.7178 81° East 531 611 37,000  Level Chicago Center
05:54AM 42.0133 -85.5003 81° East 533 613 37,000  Level Chicago Center
05:55AM 42.0358 -85.3053 81° East 531 611 37,000  Level Chicago Center
05:56AM 42.0575 -85.1117 81° East 529 609 37,000  Level Chicago Center
05:57AM 42.0794 -84.9164 81° East 529 609 37,000  Level Chicago Center
05:58AM 42.1008 -84.7236 81° East 526 605 37,000  Level Chicago Center
05:59AM 42.1214 -84.5289 82° East 528 608 37,000  Level Chicago Center
06:00AM 42.1417 -84.3344 82° East 529 609 37,000  Level Chicago Center
06:00AM 42.1500 -84.2328 84° East 527 606 37,000  Level Cleveland Center
06:01AM 42.1686 -84.0378 83° East 522 601 37,000  Level Cleveland Center
06:02AM 42.1889 -83.8453 82° East 522 601 37,000  Level Cleveland Center
06:03AM 42.2064 -83.6556 83° East 517 595 37,000  Level Cleveland Center
06:04AM 42.2283 -83.4575 81° East 527 606 37,000  Level Cleveland Center
06:05AM 42.2475 -83.2647 82° East 522 601 37,000  Level Cleveland Center
06:06AM 42.2650 -83.0467 84° East 528 608 37,000  Level Cleveland Center
06:07AM 42.2833 -82.8567 83° East 522 601 37,000  Level Cleveland Center
06:08AM 42.3017 -82.6633 83° East 517 595 37,000  Level Cleveland Center
06:09AM 42.3175 -82.4703 84° East 522 601 37,000  Level Cleveland Center
06:10AM 42.3353 -82.2742 83° East 522 601 37,000  Level Cleveland Center
06:11AM 42.3544 -82.0808 82° East 517 595 37,000  Level Cleveland Center
06:12AM 42.3717 -81.8844 83° East 517 595 37,000  Level Cleveland Center
06:13AM 42.3861 -81.6908 84° East 518 596 37,000  Level Cleveland Center
06:14AM 42.4022 -81.5025 83° East 518 596 37,000  Level Cleveland Center
06:15AM 42.4139 -81.3311 85° East 508 585 37,000  Level Cleveland Center
06:16AM 42.4275 -81.1400 84° East 508 585 37,000  Level Cleveland Center
06:17AM 42.4431 -80.9489 84° East 508 585 37,000  Level Cleveland Center
06:18AM 42.4558 -80.7606 85° East 503 579 37,000  Level Cleveland Center
06:19AM 42.4706 -80.5719 84° East 508 585 37,000  Level Cleveland Center
06:20AM 42.4831 -80.3778 85° East 502 578 37,000  Level Cleveland Center
06:21AM 42.4992 -80.1692 84° East 507 583 37,000  Level Cleveland Center
06:22AM 42.5108 -79.9775 85° East 507 583 37,000  Level Cleveland Center
06:23AM 42.5242 -79.8056 84° East 507 583 37,000  Level Cleveland Center
06:24AM 42.5353 -79.6139 85° East 507 583 37,000  Level Cleveland Center
06:25AM 42.5439 -79.4222 86° East 502 578 37,000  Level Cleveland Center
06:26AM 42.5586 -79.2303 84° East 502 578 37,000  Level Cleveland Center
06:27AM 42.5686 -79.0411 86° East 502 578 37,000  Level Cleveland Center
06:28AM 42.5806 -78.8461 85° East 502 578 37,000  Level Cleveland Center
06:29AM 42.5900 -78.6542 86° East 502 578 37,000  Level Cleveland Center
06:30AM 42.6014 -78.4647 85° East 502 578 37,000  Level Cleveland Center
06:31AM 42.6100 -78.2728 86° East 502 578 37,000  Level Cleveland Center
06:32AM 42.6206 -78.0803 86° East 502 578 37,000  Level Cleveland Center
06:33AM 42.6289 -77.8939 86° East 502 578 37,000  Level Cleveland Center
06:34AM 42.6383 -77.6817 86° East 502 578 37,000  Level Cleveland Center
06:35AM 42.6481 -77.4950 86° East 502 578 37,000  Level Cleveland Center
06:38AM 42.6644 -77.0744 87° East 505 581 37,000  Level Boston Center
06:39AM 42.6700 -76.8797 88° East 505 581 37,000  Level Boston Center
06:40AM 42.6753 -76.6881 88° East 505 581 37,000  Level Boston Center
06:41AM 42.6739 -76.4986 91° East 505 581 37,000  Level Boston Center
06:41AM 42.6703 -76.3036 91° East 505 581 37,000  Level Boston Center
06:43AM 42.6706 -76.1114 90° East 511 588 37,000  Level Boston Center
06:43AM 42.6661 -75.9192 92° East 511 588 37,000  Level Boston Center
06:44AM 42.6636 -75.7242 91° East 516 594 37,000  Level Boston Center
06:45AM 42.6586 -75.5261 92° East 516 594 37,000  Level Boston Center
06:46AM 42.6533 -75.3367 92° East 516 594 37,000 -60 Level Boston Center
06:47AM 42.6517 -75.1447 91° East 511 588 36,900 -60 Descending Boston Center
06:48AM 42.6481 -74.9328 91° East 511 588 36,900  Level Boston Center
06:49AM 42.6419 -74.7406 92° East 516 594 37,000  Climbing Boston Center
06:50AM 42.6372 -74.5483 92° East 516 594 37,000  Level Boston Center
06:51AM 42.6322 -74.3533 92° East 516 594 37,000  Level Boston Center
06:52AM 42.6250 -74.1614 93° East 516 594 37,000  Level Boston Center
06:54AM 42.6194 -73.9722 92° East 511 588 37,000  Level Boston Center
06:54AM 42.6133 -73.7803 92° East 511 588 37,000 -1,200 Level Boston Center
06:56AM 42.6114 -73.5939 91° East 505 581 34,600 -2,760 Descending Boston Center
06:56AM 42.6047 -73.3992 93° East 505 581 31,500 -2,820 Descending Boston Center
06:57AM 42.5981 -73.1989 93° East 521 600 29,100 -2,340 Descending Boston Center
06:58AM 42.5886 -73.0097 94° East 515 593 26,900 -2,220 Descending Boston Center
06:59AM 42.5831 -72.8264 92° East 497 572 24,700 -2,220 Descending Boston Center
07:00AM 42.5731 -72.6514 94° East 475 547 22,500 -1,980 Descending Boston Center
07:02AM 42.5672 -72.4908 93° East 468 539 20,800 -1,920 Descending Boston Center
07:02AM 42.5589 -72.3331 94° East 448 516 18,800 -2,100 Descending Boston Center
07:04AM 42.5500 -72.1725 94° East 428 493 16,600 -2,160 Descending Boston Center
07:05AM 42.5392 -71.9950 95° East 421 484 14,500 -2,040 Descending Boston Center
07:05AM 42.5281 -71.8597 96° East 416 479 12,700 -1,560 Descending Boston Center
07:06AM 42.5125 -71.7050 98° East 391 450 11,500 -1,020 Descending Boston Center
07:07AM 42.5000 -71.6000 99° East 334 384 11,000 -360 Descending KA90
07:08AM 42.4833 -71.4667 100° East 331 381 10,900 -660 Descending KA90
07:10AM 42.4833 -71.3167 90° East 328 377 9,500 -1,320 Descending KA90
07:10AM 42.4667 -71.2167 103° East 303 349 8,300 -1,320 Descending KA90
07:11AM 42.4500 -71.1167 103° East 295 339 7,000 -780 Descending KA90
07:12AM 42.4500 -71.0333 90° East 274 315 6,900 -540 Descending KA90
07:13AM 42.4333 -70.9500 105° East 248 285 6,100 -1,080 Descending KA90
07:14AM 42.3667 -70.8667 137° Southeast 240 276 4,600 -1,080 Descending KA90
07:15AM 42.3333 -70.8167 132° Southeast 237 273 3,900 -840 Descending KA90
07:16AM 42.2833 -70.8000 166° South 178 205 3,100 -900 Descending KA90
07:17AM 42.2833 -70.8667 270° West 170 196 2,200 -840 Descending KA90
07:18AM 42.3000 -70.9167 294° West 143 165 1,500 -660 Descending KA90
07:19AM 42.3333 -70.9500 324° Northwest 132 152 900 -720 Descending KA90
07:20AM 42.3500 -70.9833 304° West 133 153 100 -780 Descending KA90